Weipa City, Australia
Current Conditions -  °F | °C
As of 8:00 PM on Sunday 21 Dec 2014 (Local Time) from YBWP Reporting Station
NA  
Wind Chill: 84°   Ceiling: NA
Heat Index: 96°   Visibility: 6mi
Dew Point: 79°   Wind: 3mph
Humidity: 84%   Direction: 40°NE
Pressure: 29.74"   Gusts: NA
Location:  12.63°S, 141.88°E
Report Text: YBWP 211000Z AUTO 04003KT 9999 // ////// 29/26 Q1007
Loading
Personal Weather Stations






























Interactive Weather Map New forecast layout! Learn more

10-Day Weather Forecast

Advertisements
Track Severe Weather on mobile